createdAt,value
2023-02-25T00:02:04.041Z,5.80
2023-02-25T00:04:06.394Z,5.80
2023-02-25T00:06:09.522Z,5.80
2023-02-25T00:08:11.121Z,5.80
2023-02-25T00:10:14.434Z,5.80
2023-02-25T00:12:16.283Z,5.80
2023-02-25T00:14:18.006Z,5.80
2023-02-25T00:16:20.736Z,5.80
2023-02-25T00:18:22.616Z,5.80
2023-02-25T00:20:24.319Z,5.80
2023-02-25T00:22:26.208Z,5.80
2023-02-25T00:24:28.237Z,5.70
2023-02-25T00:26:29.913Z,5.70
2023-02-25T00:28:32.631Z,5.70
2023-02-25T00:30:35.190Z,5.70
2023-02-25T00:32:37.745Z,5.60
2023-02-25T00:34:39.350Z,5.70
2023-02-25T00:36:41.338Z,5.70
2023-02-25T00:38:43.017Z,5.60
2023-02-25T00:40:44.859Z,5.50
2023-02-25T00:42:46.489Z,5.50
2023-02-25T00:44:49.552Z,5.60
2023-02-25T00:46:51.225Z,5.50
2023-02-25T00:48:53.168Z,5.50
2023-02-25T00:50:54.841Z,5.50
2023-02-25T00:52:56.440Z,5.50
2023-02-25T00:54:58.109Z,5.50
2023-02-25T00:56:59.671Z,5.50
2023-02-25T00:59:01.480Z,5.50
2023-02-25T01:01:03.403Z,5.50
2023-02-25T01:03:05.028Z,5.60
2023-02-25T01:05:06.835Z,5.50
2023-02-25T01:07:08.972Z,5.50
2023-02-25T01:09:16.791Z,5.50
2023-02-25T01:11:21.131Z,5.50
2023-02-25T01:13:22.796Z,5.60
2023-02-25T01:15:24.473Z,5.60
2023-02-25T01:17:26.117Z,5.60
2023-02-25T01:19:27.867Z,5.60
2023-02-25T01:21:31.529Z,5.60
2023-02-25T01:23:33.636Z,5.60
2023-02-25T01:25:38.718Z,5.60
2023-02-25T01:27:40.270Z,5.60
2023-02-25T01:29:42.334Z,5.70
2023-02-25T01:31:44.328Z,5.60
2023-02-25T01:33:46.119Z,5.70
2023-02-25T01:35:47.891Z,5.60
2023-02-25T01:37:49.897Z,5.60
2023-02-25T01:39:51.482Z,5.60
2023-02-25T01:41:54.102Z,5.50
2023-02-25T01:44:02.879Z,5.50
2023-02-25T01:46:04.576Z,5.60
2023-02-25T01:48:09.521Z,5.60
2023-02-25T01:50:12.189Z,5.60
2023-02-25T01:52:17.266Z,5.50
2023-02-25T01:54:19.521Z,5.50
2023-02-25T01:56:23.120Z,5.60
2023-02-25T01:58:26.319Z,5.60
2023-02-25T02:00:30.306Z,5.60
2023-02-25T02:02:34.019Z,5.50
2023-02-25T02:04:36.739Z,5.50
2023-02-25T02:06:39.954Z,5.40
2023-02-25T02:08:43.490Z,5.40
2023-02-25T02:10:45.101Z,5.40
2023-02-25T02:12:47.330Z,5.50
2023-02-25T02:14:49.004Z,5.50
2023-02-25T02:17:02.386Z,5.50
2023-02-25T02:19:22.490Z,5.40
2023-02-25T02:21:44.416Z,5.50
2023-02-25T02:24:04.468Z,5.60
2023-02-25T02:26:38.735Z,5.50
2023-02-25T02:28:49.315Z,5.50
2023-02-25T02:31:09.735Z,5.60
2023-02-25T02:33:16.819Z,5.50
2023-02-25T02:35:23.492Z,5.50
2023-02-25T02:37:45.308Z,5.50
2023-02-25T02:39:53.192Z,5.50
2023-02-25T02:41:54.880Z,5.50
2023-02-25T02:44:12.760Z,5.40
2023-02-25T02:46:25.530Z,5.50
2023-02-25T02:48:30.516Z,5.40
2023-02-25T02:50:34.151Z,5.50
2023-02-25T02:52:39.657Z,5.60
2023-02-25T02:54:43.254Z,5.50
2023-02-25T02:56:47.688Z,5.50
2023-02-25T02:58:56.624Z,5.50
2023-02-25T03:01:04.210Z,5.50
2023-02-25T03:03:12.860Z,5.50
2023-02-25T03:05:17.167Z,5.50
2023-02-25T03:07:20.620Z,5.40
2023-02-25T03:09:32.859Z,5.40
2023-02-25T03:11:34.749Z,5.40
2023-02-25T03:13:36.653Z,5.40
2023-02-25T03:15:39.527Z,5.40
2023-02-25T03:17:51.221Z,5.40
2023-02-25T03:20:08.268Z,5.40
2023-02-25T03:22:15.237Z,5.40
2023-02-25T03:24:22.396Z,5.30
2023-02-25T03:26:27.877Z,5.30
2023-02-25T03:28:31.628Z,5.30
2023-02-25T03:30:33.329Z,5.30
2023-02-25T03:32:37.557Z,5.30
2023-02-25T03:34:43.874Z,5.40
2023-02-25T03:36:47.780Z,5.40
2023-02-25T03:38:51.473Z,5.30
2023-02-25T03:40:54.997Z,5.40
2023-02-25T03:43:00.265Z,5.40
2023-02-25T03:45:03.706Z,5.50
2023-02-25T03:47:06.480Z,5.40
2023-02-25T03:49:09.440Z,5.40
2023-02-25T03:51:14.221Z,5.40
2023-02-25T03:53:15.921Z,5.30
2023-02-25T03:55:18.379Z,5.30
2023-02-25T03:57:21.197Z,5.30
2023-02-25T03:59:28.223Z,5.20
2023-02-25T04:01:30.329Z,5.10
2023-02-25T04:03:32.006Z,5.10
2023-02-25T04:05:33.716Z,5.10
2023-02-25T04:07:35.569Z,5.00
2023-02-25T04:09:37.171Z,5.00
2023-02-25T04:11:38.729Z,5.00
2023-02-25T04:13:40.349Z,5.00
2023-02-25T04:15:42.196Z,5.00
2023-02-25T04:17:45.154Z,5.10
2023-02-25T04:19:46.824Z,5.10
2023-02-25T04:21:48.468Z,5.10
2023-02-25T04:23:50.071Z,5.10
2023-02-25T04:25:51.762Z,5.10
2023-02-25T04:27:53.372Z,5.10
2023-02-25T04:29:54.989Z,5.10
2023-02-25T04:31:57.079Z,5.10
2023-02-25T04:33:58.722Z,5.00
2023-02-25T04:36:00.395Z,5.00
2023-02-25T04:38:02.005Z,5.10
2023-02-25T04:40:05.181Z,5.10
2023-02-25T04:42:06.938Z,5.00
2023-02-25T04:44:09.258Z,5.10
2023-02-25T04:46:11.773Z,5.10
2023-02-25T04:48:13.474Z,5.00
2023-02-25T04:50:15.027Z,4.90
2023-02-25T04:52:16.658Z,5.00
2023-02-25T04:54:18.876Z,5.00
2023-02-25T04:56:20.532Z,5.10
2023-02-25T04:58:22.319Z,5.10
2023-02-25T05:00:24.265Z,5.00
2023-02-25T05:02:26.926Z,4.90
2023-02-25T05:04:28.855Z,4.90
2023-02-25T05:06:30.672Z,4.90
2023-02-25T05:08:33.108Z,5.00
2023-02-25T05:10:34.733Z,5.00
2023-02-25T05:12:36.406Z,5.00
2023-02-25T05:14:38.016Z,5.10
2023-02-25T05:16:39.724Z,5.00
2023-02-25T05:18:41.945Z,5.00
2023-02-25T05:20:47.436Z,4.90
2023-02-25T05:22:49.026Z,4.90
2023-02-25T05:24:50.605Z,4.90
2023-02-25T05:26:52.323Z,4.90
2023-02-25T05:28:55.347Z,4.90
2023-02-25T05:30:57.050Z,4.90
2023-02-25T05:32:58.729Z,4.90
2023-02-25T05:35:00.575Z,4.90
2023-02-25T05:37:02.197Z,4.90
2023-02-25T05:39:03.765Z,4.90
2023-02-25T05:41:06.448Z,4.90
2023-02-25T05:43:09.067Z,4.80
2023-02-25T05:45:11.325Z,4.90
2023-02-25T05:47:15.078Z,4.90
2023-02-25T05:49:16.634Z,4.80
2023-02-25T05:51:19.185Z,4.90
2023-02-25T05:53:20.890Z,4.90
2023-02-25T05:55:22.657Z,4.90
2023-02-25T05:57:24.266Z,4.90
2023-02-25T05:59:26.047Z,4.90
2023-02-25T06:01:29.322Z,4.90
2023-02-25T06:03:30.971Z,4.90
2023-02-25T06:05:32.562Z,4.90
2023-02-25T06:07:34.395Z,4.90
2023-02-25T06:09:36.124Z,4.90
2023-02-25T06:11:37.787Z,4.90
2023-02-25T06:13:39.653Z,4.90
2023-02-25T06:15:42.205Z,4.90
2023-02-25T06:17:44.064Z,4.90
2023-02-25T06:19:45.761Z,4.90
2023-02-25T06:21:47.362Z,4.90
2023-02-25T06:23:52.265Z,4.80
2023-02-25T06:25:53.949Z,4.90
2023-02-25T06:28:04.339Z,4.90
2023-02-25T06:30:11.925Z,4.90
2023-02-25T06:32:14.071Z,4.80
2023-02-25T06:34:15.743Z,4.90
2023-02-25T06:36:18.051Z,4.90
2023-02-25T06:38:20.065Z,5.00
2023-02-25T06:40:22.022Z,4.90
2023-02-25T06:42:23.780Z,5.00
2023-02-25T06:44:26.973Z,5.00
2023-02-25T06:46:29.146Z,5.00
2023-02-25T06:48:30.773Z,5.00
2023-02-25T06:50:32.602Z,5.00
2023-02-25T06:52:34.262Z,5.00
2023-02-25T06:54:35.894Z,5.00
2023-02-25T06:56:37.595Z,5.00
2023-02-25T06:58:39.324Z,5.00
2023-02-25T07:00:43.153Z,5.00
2023-02-25T07:02:44.785Z,5.00
2023-02-25T07:04:46.499Z,5.00
2023-02-25T07:06:48.148Z,5.10
2023-02-25T07:08:49.849Z,5.20
2023-02-25T07:10:51.574Z,5.10
2023-02-25T07:12:53.522Z,5.00
2023-02-25T07:14:55.167Z,5.00
2023-02-25T07:16:56.854Z,5.00
2023-02-25T07:18:59.928Z,5.10
2023-02-25T07:21:01.505Z,5.10
2023-02-25T07:23:03.724Z,5.00
2023-02-25T07:25:05.647Z,5.00
2023-02-25T07:27:08.068Z,5.00
2023-02-25T07:29:09.804Z,5.00
2023-02-25T07:31:15.799Z,5.00
2023-02-25T07:33:17.446Z,5.00
2023-02-25T07:35:19.017Z,5.10
2023-02-25T07:37:20.764Z,5.10
2023-02-25T07:39:22.358Z,5.10
2023-02-25T07:41:24.104Z,5.20
2023-02-25T07:43:25.908Z,5.10
2023-02-25T07:45:27.580Z,5.10
2023-02-25T07:47:29.412Z,5.10
2023-02-25T07:49:31.096Z,5.10
2023-02-25T07:51:32.876Z,5.10
2023-02-25T07:53:34.668Z,5.20
2023-02-25T07:55:36.355Z,5.30
2023-02-25T07:57:38.028Z,5.30
2023-02-25T07:59:39.676Z,5.40
2023-02-25T08:01:41.542Z,5.40
2023-02-25T08:03:43.186Z,5.40
2023-02-25T08:05:44.794Z,5.40
2023-02-25T08:07:46.511Z,5.40
2023-02-25T08:09:48.131Z,5.40
2023-02-25T08:11:49.733Z,5.60
2023-02-25T08:13:51.676Z,5.60
2023-02-25T08:15:53.366Z,5.60
2023-02-25T08:17:55.741Z,5.60
2023-02-25T08:19:57.466Z,5.40
2023-02-25T08:22:00.211Z,5.40
2023-02-25T08:24:01.868Z,5.40
2023-02-25T08:26:04.028Z,5.40
2023-02-25T08:28:05.658Z,5.30
2023-02-25T08:30:10.417Z,5.40
2023-02-25T08:32:12.170Z,5.30
2023-02-25T08:34:13.856Z,5.20
2023-02-25T08:36:17.105Z,5.30
2023-02-25T08:38:18.730Z,5.40
2023-02-25T08:40:20.570Z,5.40
2023-02-25T08:42:22.736Z,5.60
2023-02-25T08:44:24.342Z,5.70
2023-02-25T08:46:27.522Z,5.80
2023-02-25T08:48:29.337Z,5.80
2023-02-25T08:50:30.998Z,5.90
2023-02-25T08:52:33.628Z,6.00
2023-02-25T08:54:35.998Z,6.10
2023-02-25T08:56:37.958Z,6.00
2023-02-25T08:58:40.276Z,5.90
2023-02-25T09:00:42.136Z,5.70
2023-02-25T09:02:44.877Z,5.90
2023-02-25T09:04:46.545Z,5.90
2023-02-25T09:06:48.649Z,5.90
2023-02-25T09:08:51.326Z,6.10
2023-02-25T09:10:53.088Z,6.10
2023-02-25T09:12:54.943Z,6.00
2023-02-25T09:14:56.603Z,6.10
2023-02-25T09:16:58.284Z,6.20
2023-02-25T09:18:59.910Z,6.10
2023-02-25T09:21:02.252Z,6.20
2023-02-25T09:23:03.871Z,6.30
2023-02-25T09:25:06.431Z,6.40
2023-02-25T09:27:08.260Z,6.50
2023-02-25T09:29:10.060Z,6.70
2023-02-25T09:31:11.797Z,6.70
2023-02-25T09:33:14.192Z,6.60
2023-02-25T09:35:16.147Z,6.40
2023-02-25T09:37:19.727Z,6.50
2023-02-25T09:39:21.463Z,6.60
2023-02-25T09:41:33.118Z,6.60
2023-02-25T09:43:38.822Z,6.80
2023-02-25T09:45:42.032Z,6.80
2023-02-25T09:48:00.662Z,6.60
2023-02-25T09:50:08.054Z,6.50
2023-02-25T09:52:18.643Z,6.40
2023-02-25T09:54:22.464Z,6.40
2023-02-25T09:56:26.747Z,6.20
2023-02-25T09:58:41.435Z,6.20
2023-02-25T10:00:46.008Z,6.30
2023-02-25T10:02:59.644Z,6.50
2023-02-25T10:05:07.289Z,6.60
2023-02-25T10:07:16.443Z,6.70
2023-02-25T10:09:37.540Z,6.80
2023-02-25T10:11:57.737Z,7.00
2023-02-25T10:14:10.599Z,7.20
2023-02-25T10:16:12.219Z,7.20
2023-02-25T10:18:16.908Z,7.10
2023-02-25T10:20:34.875Z,7.20
2023-02-25T10:22:51.360Z,6.90
2023-02-25T10:24:59.291Z,6.80
2023-02-25T10:27:26.985Z,6.80
2023-02-25T10:29:33.553Z,6.60
2023-02-25T10:31:35.545Z,6.80
2023-02-25T10:33:38.630Z,6.90
2023-02-25T10:35:41.820Z,7.10
2023-02-25T10:37:43.896Z,6.90
2023-02-25T10:39:48.504Z,7.10
2023-02-25T10:41:50.450Z,6.80
2023-02-25T10:43:52.727Z,6.90
2023-02-25T10:45:58.354Z,6.90
2023-02-25T10:48:06.506Z,6.90
2023-02-25T10:50:14.225Z,6.80
2023-02-25T10:52:17.907Z,6.60
2023-02-25T10:54:22.718Z,6.70
2023-02-25T10:56:25.682Z,6.70
2023-02-25T10:58:31.554Z,6.70
2023-02-25T11:00:34.588Z,6.70
2023-02-25T11:02:42.102Z,6.60
2023-02-25T11:04:44.963Z,6.60
2023-02-25T11:06:46.641Z,6.50
2023-02-25T11:08:48.306Z,6.30
2023-02-25T11:11:00.682Z,6.40
2023-02-25T11:13:04.634Z,6.50
2023-02-25T11:15:37.884Z,6.60
2023-02-25T11:17:45.412Z,6.60
2023-02-25T11:19:49.802Z,6.50
2023-02-25T11:21:51.636Z,6.80
2023-02-25T11:23:54.912Z,6.80
2023-02-25T11:25:57.424Z,6.90
2023-02-25T11:27:59.902Z,6.90
2023-02-25T11:30:24.748Z,6.80
2023-02-25T11:32:26.534Z,6.90
2023-02-25T11:34:30.691Z,7.60
2023-02-25T11:36:33.627Z,7.60
2023-02-25T11:38:36.710Z,7.30
2023-02-25T11:40:44.120Z,7.70
2023-02-25T11:42:59.412Z,7.80
2023-02-25T11:45:03.289Z,7.70
2023-02-25T11:47:05.225Z,7.30
2023-02-25T11:49:09.636Z,6.90
2023-02-25T11:51:17.020Z,6.90
2023-02-25T11:53:30.881Z,6.70
2023-02-25T11:55:51.371Z,6.70
2023-02-25T11:58:03.491Z,6.60
2023-02-25T12:00:14.714Z,6.80
2023-02-25T12:02:20.438Z,6.60
2023-02-25T12:04:37.254Z,6.40
2023-02-25T12:06:45.090Z,6.40
2023-02-25T12:08:46.935Z,6.40
2023-02-25T12:11:07.252Z,6.50
2023-02-25T12:13:13.560Z,6.40
2023-02-25T12:15:24.237Z,6.40
2023-02-25T12:17:36.280Z,6.50
2023-02-25T12:19:47.363Z,6.60
2023-02-25T12:22:12.786Z,6.70
2023-02-25T12:24:14.438Z,6.80
2023-02-25T12:26:34.921Z,6.70
2023-02-25T12:29:03.501Z,6.80
2023-02-25T12:31:14.189Z,6.70
2023-02-25T12:33:21.876Z,6.70
2023-02-25T12:35:38.830Z,6.40
2023-02-25T12:37:53.027Z,6.60
2023-02-25T12:40:13.622Z,6.60
2023-02-25T12:42:34.126Z,6.50
2023-02-25T12:44:44.401Z,6.40
2023-02-25T12:46:55.123Z,6.50
2023-02-25T12:49:02.902Z,6.50
2023-02-25T12:51:23.653Z,6.30
2023-02-25T12:53:28.510Z,6.50
2023-02-25T12:55:30.168Z,6.30
2023-02-25T12:57:50.334Z,6.40
2023-02-25T13:00:10.433Z,6.30
2023-02-25T13:02:28.956Z,6.20
2023-02-25T13:04:36.608Z,6.10
2023-02-25T13:06:41.188Z,6.00
2023-02-25T13:08:42.837Z,6.10
2023-02-25T13:11:10.547Z,5.70
2023-02-25T13:13:27.162Z,5.40
2023-02-25T13:15:53.863Z,5.60
2023-02-25T13:17:55.525Z,5.30
2023-02-25T13:20:19.146Z,5.70
2023-02-25T13:22:35.981Z,6.50
2023-02-25T13:24:44.386Z,6.50
2023-02-25T13:26:58.444Z,7.90
2023-02-25T13:29:14.595Z,7.40
2023-02-25T13:31:26.318Z,6.60
2023-02-25T13:33:36.676Z,6.10
2023-02-25T13:35:50.530Z,6.30
2023-02-25T13:38:14.552Z,6.20
2023-02-25T13:40:28.307Z,6.20
2023-02-25T13:42:39.092Z,5.80
2023-02-25T13:44:44.773Z,5.80
2023-02-25T13:46:46.553Z,5.90
2023-02-25T13:49:08.409Z,5.90
2023-02-25T13:51:16.028Z,6.10
2023-02-25T13:53:17.660Z,6.10
2023-02-25T13:55:38.800Z,6.00
2023-02-25T13:57:40.395Z,5.80
2023-02-25T13:59:41.999Z,5.90
2023-02-25T14:01:47.068Z,6.00
2023-02-25T14:04:20.873Z,6.00
2023-02-25T14:06:22.560Z,6.20
2023-02-25T14:08:44.634Z,6.50
2023-02-25T14:10:46.330Z,6.90
2023-02-25T14:13:00.001Z,6.90
2023-02-25T14:15:01.681Z,7.00
2023-02-25T14:17:15.434Z,7.10
2023-02-25T14:19:17.158Z,6.90
2023-02-25T14:21:51.749Z,6.90
2023-02-25T14:24:12.284Z,6.90
2023-02-25T14:26:30.446Z,7.50
2023-02-25T14:28:32.077Z,7.80
2023-02-25T14:31:06.299Z,8.00
2023-02-25T14:33:20.244Z,8.60
2023-02-25T14:35:40.680Z,7.90
2023-02-25T14:37:42.260Z,8.50
2023-02-25T14:39:47.744Z,11.00
2023-02-25T14:42:01.839Z,9.60
2023-02-25T14:44:06.606Z,9.70
2023-02-25T14:46:11.363Z,8.50
2023-02-25T14:48:31.605Z,7.90
2023-02-25T14:50:45.412Z,7.80
2023-02-25T14:52:56.176Z,7.60
2023-02-25T14:55:03.726Z,7.30
2023-02-25T14:57:08.330Z,7.00
2023-02-25T14:59:09.918Z,7.20
2023-02-25T15:01:36.290Z,7.00
2023-02-25T15:03:47.349Z,6.90
2023-02-25T15:05:48.929Z,7.20
2023-02-25T15:08:09.370Z,7.00
2023-02-25T15:10:23.523Z,6.90
2023-02-25T15:12:43.584Z,6.90
2023-02-25T15:14:54.488Z,7.00
2023-02-25T15:17:06.317Z,7.30
2023-02-25T15:19:26.760Z,7.20
2023-02-25T15:21:31.511Z,7.10
2023-02-25T15:23:50.114Z,6.80
2023-02-25T15:25:53.922Z,6.70
2023-02-25T15:27:56.777Z,6.70
2023-02-25T15:29:59.484Z,6.80
2023-02-25T15:32:10.535Z,6.70
2023-02-25T15:34:21.019Z,6.80
2023-02-25T15:36:43.071Z,6.80
2023-02-25T15:38:47.727Z,6.70
2023-02-25T15:40:50.619Z,6.60
2023-02-25T15:42:53.937Z,6.60
2023-02-25T15:45:22.270Z,6.60
2023-02-25T15:47:28.669Z,6.50
2023-02-25T15:49:33.043Z,6.50
2023-02-25T15:51:53.912Z,6.80
2023-02-25T15:53:55.775Z,7.30
2023-02-25T15:56:03.325Z,6.90
2023-02-25T15:58:31.519Z,6.80
2023-02-25T16:00:48.250Z,6.70
2023-02-25T16:02:52.988Z,6.50
2023-02-25T16:05:09.964Z,6.50
2023-02-25T16:07:16.240Z,6.40
2023-02-25T16:09:18.474Z,6.30
2023-02-25T16:11:34.494Z,6.40
2023-02-25T16:13:37.105Z,6.30
2023-02-25T16:15:42.051Z,5.90
2023-02-25T16:17:44.262Z,5.80
2023-02-25T16:19:54.353Z,5.40
2023-02-25T16:21:58.120Z,5.50
2023-02-25T16:24:00.567Z,5.40
2023-02-25T16:26:02.134Z,5.30
2023-02-25T16:28:04.501Z,5.30
2023-02-25T16:30:24.448Z,5.20
2023-02-25T16:32:44.982Z,5.10
2023-02-25T16:34:50.381Z,5.00
2023-02-25T16:37:10.726Z,5.10
2023-02-25T16:39:16.046Z,4.80
2023-02-25T16:41:17.789Z,5.10
2023-02-25T16:43:26.798Z,4.90
2023-02-25T16:45:30.294Z,4.90
2023-02-25T16:47:33.562Z,5.00
2023-02-25T16:49:39.211Z,4.90
2023-02-25T16:51:43.213Z,4.90
2023-02-25T16:53:45.569Z,5.10
2023-02-25T16:55:47.229Z,5.10
2023-02-25T16:58:27.574Z,5.10
2023-02-25T17:00:29.574Z,5.10
2023-02-25T17:02:31.289Z,5.10
2023-02-25T17:04:34.544Z,5.10
2023-02-25T17:06:36.129Z,5.00
2023-02-25T17:08:43.591Z,5.10
2023-02-25T17:10:47.228Z,5.10
2023-02-25T17:12:48.939Z,5.10
2023-02-25T17:14:51.517Z,5.00
2023-02-25T17:16:53.278Z,5.00
2023-02-25T17:18:57.290Z,4.90
2023-02-25T17:21:00.368Z,5.00
2023-02-25T17:23:04.551Z,4.90
2023-02-25T17:25:06.473Z,4.90
2023-02-25T17:27:12.257Z,5.00
2023-02-25T17:29:14.739Z,5.00
2023-02-25T17:31:18.259Z,4.90
2023-02-25T17:33:22.427Z,4.80
2023-02-25T17:35:25.805Z,4.80
2023-02-25T17:37:29.400Z,4.70
2023-02-25T17:39:31.161Z,4.60
2023-02-25T17:41:34.093Z,4.70
2023-02-25T17:43:37.522Z,4.70
2023-02-25T17:45:39.202Z,4.80
2023-02-25T17:47:43.777Z,4.90
2023-02-25T17:49:45.412Z,4.40
2023-02-25T17:51:51.839Z,3.90
2023-02-25T17:54:02.603Z,3.60
2023-02-25T17:56:12.390Z,3.20
2023-02-25T17:58:21.693Z,3.10
2023-02-25T18:00:26.050Z,3.10
2023-02-25T18:02:36.940Z,2.80
2023-02-25T18:04:40.549Z,2.70
2023-02-25T18:06:44.672Z,2.70
2023-02-25T18:08:51.168Z,2.70
2023-02-25T18:10:57.332Z,2.60
2023-02-25T18:12:59.757Z,2.80
2023-02-25T18:15:02.821Z,2.70
2023-02-25T18:17:12.801Z,2.60
2023-02-25T18:19:25.425Z,2.50
2023-02-25T18:21:27.157Z,2.40
2023-02-25T18:23:30.320Z,2.40
2023-02-25T18:25:32.296Z,2.40
2023-02-25T18:27:37.506Z,2.30
2023-02-25T18:29:39.180Z,2.30
2023-02-25T18:31:41.352Z,2.40
2023-02-25T18:33:43.065Z,2.40
2023-02-25T18:35:45.710Z,2.30
2023-02-25T18:37:48.658Z,2.40
2023-02-25T18:39:51.252Z,2.40
2023-02-25T18:41:53.121Z,2.50
2023-02-25T18:43:54.780Z,2.60
2023-02-25T18:45:56.896Z,2.60
2023-02-25T18:48:00.292Z,2.60
2023-02-25T18:50:01.914Z,2.40
2023-02-25T18:52:03.576Z,2.30
2023-02-25T18:54:05.688Z,2.50
2023-02-25T18:56:08.676Z,2.50
2023-02-25T18:58:11.560Z,2.40
2023-02-25T19:00:14.281Z,2.20
2023-02-25T19:02:36.310Z,2.40
2023-02-25T19:04:38.118Z,2.50
2023-02-25T19:06:39.701Z,2.60
2023-02-25T19:08:41.309Z,2.60
2023-02-25T19:10:46.288Z,2.40
2023-02-25T19:12:49.606Z,2.50
2023-02-25T19:15:01.917Z,2.50
2023-02-25T19:17:03.702Z,2.50
2023-02-25T19:19:05.363Z,2.40
2023-02-25T19:21:11.573Z,2.50
2023-02-25T19:23:14.865Z,2.40
2023-02-25T19:25:25.724Z,2.50
2023-02-25T19:27:28.436Z,2.30
2023-02-25T19:29:30.121Z,2.40
2023-02-25T19:31:31.749Z,2.30
2023-02-25T19:33:33.556Z,2.30
2023-02-25T19:35:36.409Z,2.30
2023-02-25T19:37:38.905Z,2.30
2023-02-25T19:39:41.454Z,2.40
2023-02-25T19:41:43.168Z,2.40
2023-02-25T19:43:44.783Z,2.50
2023-02-25T19:45:47.084Z,2.50
2023-02-25T19:47:49.388Z,2.40
2023-02-25T19:49:51.003Z,2.50
2023-02-25T19:51:52.853Z,2.40
2023-02-25T19:53:54.449Z,2.50
2023-02-25T19:55:56.792Z,2.60
2023-02-25T19:57:58.398Z,2.60
2023-02-25T20:00:00.105Z,2.60
2023-02-25T20:02:01.734Z,2.50
2023-02-25T20:04:03.433Z,2.50
2023-02-25T20:06:09.093Z,2.40
2023-02-25T20:08:10.740Z,2.40
2023-02-25T20:10:13.718Z,2.30
2023-02-25T20:12:15.383Z,2.30
2023-02-25T20:14:17.698Z,2.40
2023-02-25T20:16:21.160Z,2.40
2023-02-25T20:18:22.858Z,2.50
2023-02-25T20:20:24.927Z,2.50
2023-02-25T20:22:26.589Z,2.60
2023-02-25T20:24:28.678Z,2.50
2023-02-25T20:26:32.679Z,2.40
2023-02-25T20:28:34.440Z,2.50
2023-02-25T20:30:37.218Z,2.50
2023-02-25T20:32:38.994Z,2.40
2023-02-25T20:34:40.715Z,2.50
2023-02-25T20:37:17.589Z,2.50
2023-02-25T20:39:37.452Z,2.50
2023-02-25T20:41:43.030Z,2.50
2023-02-25T20:43:44.767Z,2.70
2023-02-25T20:45:46.608Z,2.60
2023-02-25T20:47:48.417Z,2.70
2023-02-25T20:49:50.938Z,2.60
2023-02-25T20:51:52.997Z,2.60
2023-02-25T20:53:54.942Z,2.50
2023-02-25T20:55:57.248Z,2.60
2023-02-25T20:57:59.032Z,2.60
2023-02-25T21:00:00.727Z,2.50
2023-02-25T21:02:02.402Z,2.60
2023-02-25T21:04:04.435Z,2.60
2023-02-25T21:06:06.540Z,2.60
2023-02-25T21:08:08.360Z,2.50
2023-02-25T21:10:10.833Z,2.50
2023-02-25T21:12:12.594Z,2.60
2023-02-25T21:14:14.383Z,2.60
2023-02-25T21:16:16.944Z,2.60
2023-02-25T21:18:19.133Z,2.70
2023-02-25T21:20:20.728Z,2.70
2023-02-25T21:22:22.440Z,2.60
2023-02-25T21:24:24.200Z,2.40
2023-02-25T21:26:26.091Z,2.50
2023-02-25T21:28:28.520Z,2.50
2023-02-25T21:30:30.242Z,2.40
2023-02-25T21:32:32.034Z,2.50
2023-02-25T21:34:33.770Z,2.60
2023-02-25T21:36:35.725Z,2.60
2023-02-25T21:38:37.655Z,2.40
2023-02-25T21:40:39.467Z,2.50
2023-02-25T21:42:41.136Z,2.30
2023-02-25T21:44:42.868Z,2.10
2023-02-25T21:46:44.458Z,2.30
2023-02-25T21:48:47.357Z,2.40
2023-02-25T21:50:49.053Z,2.30
2023-02-25T21:52:51.170Z,2.30
2023-02-25T21:54:53.913Z,2.30
2023-02-25T21:56:55.550Z,2.30
2023-02-25T21:58:58.218Z,2.20
2023-02-25T22:01:10.000Z,2.20
2023-02-25T22:03:11.884Z,2.20
2023-02-25T22:05:13.479Z,2.10
2023-02-25T22:07:15.140Z,2.20
2023-02-25T22:09:18.001Z,2.20
2023-02-25T22:11:20.773Z,2.20
2023-02-25T22:13:22.402Z,2.20
2023-02-25T22:15:24.138Z,2.20
2023-02-25T22:17:25.692Z,2.10
2023-02-25T22:19:27.411Z,2.20
2023-02-25T22:21:30.459Z,2.10
2023-02-25T22:23:32.150Z,2.10
2023-02-25T22:25:33.771Z,2.00
2023-02-25T22:27:35.420Z,1.90
2023-02-25T22:29:36.994Z,1.80
2023-02-25T22:31:38.928Z,1.70
2023-02-25T22:33:41.098Z,1.60
2023-02-25T22:35:42.778Z,1.60
2023-02-25T22:37:44.437Z,1.60
2023-02-25T22:39:46.235Z,1.50
2023-02-25T22:41:48.083Z,1.50
2023-02-25T22:43:49.993Z,1.50
2023-02-25T22:45:51.627Z,1.40
2023-02-25T22:47:53.292Z,1.40
2023-02-25T22:49:55.090Z,1.30
2023-02-25T22:51:56.668Z,1.30
2023-02-25T22:53:58.295Z,1.30
2023-02-25T22:56:01.154Z,1.30
2023-02-25T22:58:04.824Z,1.30
2023-02-25T23:00:16.648Z,1.30
2023-02-25T23:02:18.445Z,1.30
2023-02-25T23:04:20.027Z,1.30
2023-02-25T23:06:34.239Z,1.30
2023-02-25T23:08:44.083Z,1.20
2023-02-25T23:10:45.956Z,1.20
2023-02-25T23:12:47.614Z,1.30
2023-02-25T23:14:49.235Z,1.40
2023-02-25T23:16:51.417Z,1.50
2023-02-25T23:18:53.064Z,1.50
2023-02-25T23:20:55.359Z,1.50
2023-02-25T23:22:57.216Z,1.50
2023-02-25T23:24:58.776Z,1.50
2023-02-25T23:27:00.394Z,1.50
2023-02-25T23:29:03.373Z,1.40
2023-02-25T23:31:05.261Z,1.50
2023-02-25T23:33:06.943Z,1.50
2023-02-25T23:35:09.855Z,1.50
2023-02-25T23:37:11.446Z,1.50
2023-02-25T23:39:13.869Z,1.50
2023-02-25T23:41:15.604Z,1.40
2023-02-25T23:43:17.362Z,1.40
2023-02-25T23:45:18.978Z,1.50
2023-02-25T23:47:20.676Z,1.50
2023-02-25T23:49:22.808Z,1.50
2023-02-25T23:51:25.151Z,1.60
2023-02-25T23:53:26.734Z,1.50
2023-02-25T23:55:29.165Z,1.40
2023-02-25T23:57:30.741Z,1.20
2023-02-25T23:59:32.464Z,1.10
